MV Sea Wolf — WCW6738 — position and weather

sailwx.info

Track history (hours):
 
Tides and Currents Weather Stations Pressure Air Temp Water Temp Dewpoint Dewpoint Depression Visibility Wind Speed Wind Dir Waves Ship Positions

MV Sea Wolf

Owner: SEA WOLF MARINE TOWING & TRANSPORTATION, Bayonne, NJ. More information available from US FCC via Universal Licensing System and Coast Guard Vessel Documentation Center.

Last reported at 2014-Oct-23 17:33 UTC. Time now 2014-Oct-23 17:51 UTC.
Position N 40°51' W 072°29'.

Length 66 m; draft 10 m.

MMSI: 367002350.

Date/timePositionNaut miles runAvg speedWind from/ knotsBaromVisibWave heightAir tempDewpointWater temp
2014-Oct-23 17:33N 40°51' W 072°29'0 0.0
2014-Oct-23 16:33N 40°51' W 072°29'0 0.0
2014-Oct-23 15:33N 40°51' W 072°29'0 0.2
2014-Oct-23 14:33N 40°51' W 072°29'0 0.2
2014-Oct-23 13:33N 40°51' W 072°29'0 0.0
2014-Oct-23 12:33N 40°51' W 072°29'0 0.0
2014-Oct-23 11:33N 40°51' W 072°29'0 0.1
2014-Oct-23 10:33N 40°51' W 072°29'0 0.0
2014-Oct-23 09:33N 40°51' W 072°29'0 0.0
2014-Oct-23 08:33N 40°51' W 072°29'0 0.0
2014-Oct-23 07:33N 40°51' W 072°29'0 0.0
2014-Oct-23 06:33N 40°51' W 072°29'0 0.0
2014-Oct-23 05:33N 40°51' W 072°29'0 0.0
2014-Oct-23 04:33N 40°51' W 072°29'0 0.0
2014-Oct-23 03:33N 40°51' W 072°29'0 0.0
2014-Oct-23 02:33N 40°51' W 072°29'0 0.0
2014-Oct-23 01:33N 40°51' W 072°29'0 0.0
2014-Oct-23 00:33N 40°51' W 072°29'0 0.0
2014-Oct-22 23:34N 40°51' W 072°29'0 0.0
2014-Oct-22 22:33N 40°51' W 072°29'0 0.0
2014-Oct-22 21:33N 40°51' W 072°29'0 0.0
2014-Oct-22 20:33N 40°51' W 072°29'0 0.0
2014-Oct-22 19:33N 40°51' W 072°29'0 0.0
2014-Oct-22 18:33N 40°51' W 072°29'0 0.0
2014-Oct-22 17:33N 40°51' W 072°29'0 0.0
2014-Oct-22 16:33N 40°51' W 072°29'0 0.0
2014-Oct-22 15:33N 40°51' W 072°29'0 0.0
2014-Oct-22 14:33N 40°51' W 072°29'0 0.0
2014-Oct-22 13:33N 40°51' W 072°29'0 0.0
2014-Oct-22 12:33N 40°51' W 072°29'0 0.0
2014-Oct-22 11:33N 40°51' W 072°29'0 0.0
2014-Oct-22 10:33N 40°51' W 072°29'0 0.0
2014-Oct-22 09:34N 40°51' W 072°29'0 0.0
2014-Oct-22 08:33N 40°51' W 072°29'0 0.0
2014-Oct-22 07:33N 40°51' W 072°29'0 0.0
2014-Oct-22 06:33N 40°51' W 072°29'0 0.0
2014-Oct-22 05:33N 40°51' W 072°29'0 0.0
2014-Oct-22 04:33N 40°51' W 072°29'0 0.0
2014-Oct-22 03:34N 40°51' W 072°29'0 0.0
2014-Oct-22 02:33N 40°51' W 072°29'0 0.0
2014-Oct-22 01:33N 40°51' W 072°29'0 0.0
2014-Oct-22 00:33N 40°51' W 072°29'0 0.0
2014-Oct-21 23:33N 40°51' W 072°29'0 0.4
2014-Oct-21 22:33N 40°51' W 072°29'0 0.4
2014-Oct-21 21:33N 40°51' W 072°29'0 0.0
2014-Oct-21 20:33N 40°51' W 072°29'0 0.0
2014-Oct-21 19:33N 40°51' W 072°29'0 0.0
2014-Oct-21 18:33N 40°51' W 072°29'0 0.0
2014-Oct-21 17:33N 40°51' W 072°29'0 0.0
2014-Oct-21 16:33N 40°51' W 072°29'0 0.0
2014-Oct-21 15:33N 40°51' W 072°29'0 0.0
2014-Oct-21 14:33N 40°51' W 072°29'0 0.5
2014-Oct-21 13:33N 40°51' W 072°29'0 0.5
2014-Oct-21 12:33N 40°51' W 072°29'0 0.0
2014-Oct-21 11:34N 40°51' W 072°29'0 0.1
2014-Oct-21 10:34N 40°51' W 072°29'0 0.0
2014-Oct-21 09:34N 40°51' W 072°29'0 0.0
2014-Oct-21 08:34N 40°51' W 072°29'0 0.0
2014-Oct-21 07:33N 40°51' W 072°29'0 0.0
2014-Oct-21 06:33N 40°51' W 072°29'0 0.0
2014-Oct-21 05:34N 40°51' W 072°29'0 0.0
2014-Oct-21 04:34N 40°51' W 072°29'0 0.0
2014-Oct-21 03:34N 40°51' W 072°29'0 0.0
2014-Oct-21 02:34N 40°51' W 072°29'0 0.0
2014-Oct-21 01:33N 40°51' W 072°29'0 0.0
2014-Oct-21 00:33N 40°51' W 072°29'0 0.0
2014-Oct-20 23:33N 40°51' W 072°29'0 0.0
2014-Oct-20 22:34N 40°51' W 072°29'0 0.0
2014-Oct-20 21:34N 40°51' W 072°29'0 0.0
2014-Oct-20 20:34N 40°51' W 072°29'0 0.0
2014-Oct-20 19:34N 40°51' W 072°29'0 0.1
2014-Oct-20 18:34N 40°51' W 072°29'0 0.1
2014-Oct-20 17:34N 40°51' W 072°29'0 0.1
2014-Oct-20 16:34N 40°51' W 072°29'2 1.9
2014-Oct-20 15:34N 40°49' W 072°31'7 6.9
2014-Oct-20 14:34N 40°47' W 072°39'1 1.0
2014-Oct-20 13:29N 40°46' W 072°41'6 6.3
2014-Oct-20 12:34N 40°48' W 072°33'4 3.8
2014-Oct-20 11:34N 40°51' W 072°29'0 0.0
2014-Oct-20 10:33N 40°51' W 072°29'0 0.0
2014-Oct-20 09:34N 40°51' W 072°29'0 0.0
2014-Oct-20 08:34N 40°51' W 072°29'0 0.0
2014-Oct-20 07:33N 40°51' W 072°29'0 0.0
2014-Oct-20 06:33N 40°51' W 072°29'0 0.0
2014-Oct-20 05:34N 40°51' W 072°29'0 0.0
2014-Oct-20 04:34N 40°51' W 072°29'0 0.0
2014-Oct-20 03:34N 40°51' W 072°29'0 0.0
2014-Oct-20 02:34N 40°51' W 072°29'0 0.0
2014-Oct-20 01:33N 40°51' W 072°29'0 0.0
2014-Oct-20 00:34N 40°51' W 072°29'0 0.0
2014-Oct-19 23:34N 40°51' W 072°29'0 0.0
2014-Oct-19 22:34N 40°51' W 072°29'0 0.3
2014-Oct-19 21:33N 40°51' W 072°29'0 0.0
2014-Oct-19 20:33N 40°51' W 072°29'0 0.0
2014-Oct-19 19:33N 40°51' W 072°29'0 0.0
2014-Oct-19 18:34N 40°51' W 072°29'0 0.3
2014-Oct-19 17:34N 40°51' W 072°29'3 2.8
2014-Oct-19 16:34N 40°49' W 072°32'7 7.2
2014-Oct-19 15:34N 40°46' W 072°41'1 1.4
2014-Oct-19 14:33N 40°47' W 072°39'4 4.0
2014-Oct-19 13:34N 40°48' W 072°34'5 4.5
2014-Oct-19 12:34N 40°51' W 072°29'0 0.1
2014-Oct-19 11:34N 40°51' W 072°29'0 0.0
2014-Oct-19 10:34N 40°51' W 072°29'0 0.0
2014-Oct-19 09:33N 40°51' W 072°29'0 0.0
2014-Oct-19 08:33N 40°51' W 072°29'0 0.0
2014-Oct-19 07:33N 40°51' W 072°29'0 0.0
2014-Oct-19 06:33N 40°51' W 072°29'0 0.0
2014-Oct-19 05:33N 40°51' W 072°29'0 0.0
2014-Oct-19 04:33N 40°51' W 072°29'0 0.0
2014-Oct-19 03:33N 40°51' W 072°29'0 0.0
2014-Oct-19 02:33N 40°51' W 072°29'0 0.0
2014-Oct-19 01:33N 40°51' W 072°29'0 0.0
2014-Oct-19 00:34N 40°51' W 072°29'0 0.0
2014-Oct-18 23:33N 40°51' W 072°29'0 0.0
2014-Oct-18 22:34N 40°51' W 072°29'0 0.4
2014-Oct-18 21:34N 40°51' W 072°29'0 0.3
2014-Oct-18 20:33N 40°51' W 072°29'0 0.0
2014-Oct-18 19:34N 40°51' W 072°29'0 0.0
2014-Oct-18 18:33N 40°51' W 072°29'0 0.0
2014-Oct-18 17:33N 40°51' W 072°29'0 0.0
2014-Oct-18 16:34N 40°51' W 072°29'0 0.0
2014-Oct-18 15:34N 40°51' W 072°29'0 0.0
2014-Oct-18 14:33N 40°51' W 072°29'0 0.0
2014-Oct-18 13:34N 40°51' W 072°29'0 0.0
2014-Oct-18 12:33N 40°51' W 072°29'0 0.0
2014-Oct-18 11:33N 40°51' W 072°29'0 0.0
2014-Oct-18 10:33N 40°51' W 072°29'0 0.0
2014-Oct-18 09:33N 40°51' W 072°29'0 0.0
2014-Oct-18 08:33N 40°51' W 072°29'0 0.0
2014-Oct-18 07:33N 40°51' W 072°29'0 0.0
2014-Oct-18 06:33N 40°51' W 072°29'0 0.0
2014-Oct-18 05:33N 40°51' W 072°29'0 0.0
2014-Oct-18 04:33N 40°51' W 072°29'0 0.0
2014-Oct-18 03:33N 40°51' W 072°29'0 0.0
2014-Oct-18 02:33N 40°51' W 072°29'0 0.0
2014-Oct-18 01:33N 40°51' W 072°29'0 0.2
2014-Oct-18 00:33N 40°51' W 072°29'0 0.2
2014-Oct-17 23:33N 40°51' W 072°29'0 0.4
2014-Oct-17 22:33N 40°51' W 072°29'0 0.4
2014-Oct-17 21:33N 40°51' W 072°29'0 0.0
2014-Oct-17 20:33N 40°51' W 072°29'0 0.0
2014-Oct-17 19:33N 40°51' W 072°29'0 0.0
2014-Oct-17 18:33N 40°51' W 072°29'0 0.0
2014-Oct-17 17:33N 40°51' W 072°29'0 0.0
2014-Oct-17 16:33N 40°51' W 072°29'0 0.4
2014-Oct-17 15:33N 40°51' W 072°29'0 0.0
2014-Oct-17 14:33N 40°51' W 072°29'0 0.0
2014-Oct-17 13:33N 40°51' W 072°29'0 0.0
2014-Oct-17 12:33N 40°51' W 072°29'0 0.0
2014-Oct-17 11:33N 40°51' W 072°29'0 0.0
2014-Oct-17 10:33N 40°51' W 072°29'0 0.0
2014-Oct-17 09:33N 40°51' W 072°29'0 0.0
2014-Oct-17 08:33N 40°51' W 072°29'0 0.0
2014-Oct-17 07:33N 40°51' W 072°29'0 0.0
2014-Oct-17 06:33N 40°51' W 072°29'0 0.0
2014-Oct-17 05:33N 40°51' W 072°29'0 0.0
2014-Oct-17 04:33N 40°51' W 072°29'0 0.0
2014-Oct-17 03:33N 40°51' W 072°29'0 0.0
2014-Oct-17 02:33N 40°51' W 072°29'0 0.0
2014-Oct-17 01:33N 40°51' W 072°29'0 0.0
2014-Oct-17 00:33N 40°51' W 072°29'0 0.0
2014-Oct-16 23:33N 40°51' W 072°29'0 0.0
2014-Oct-16 22:33N 40°51' W 072°29'0 0.3
2014-Oct-16 21:33N 40°51' W 072°29'0 0.4
2014-Oct-16 20:33N 40°51' W 072°29'0 0.0
2014-Oct-16 19:33N 40°51' W 072°29'0 0.0
2014-Oct-16 18:33N 40°51' W 072°29'0 0.0
2014-Oct-16 17:33N 40°51' W 072°29'0 0.1
2014-Oct-16 16:33N 40°51' W 072°29'0 0.1
2014-Oct-16 15:33N 40°51' W 072°29'0 0.0
2014-Oct-16 14:33N 40°51' W 072°29'0 0.0
2014-Oct-16 13:33N 40°51' W 072°29'0 0.0
2014-Oct-16 12:33N 40°51' W 072°29'0 0.0
2014-Oct-16 11:33N 40°51' W 072°29'0 0.0
2014-Oct-16 10:33N 40°51' W 072°29'0 0.0
2014-Oct-16 09:33N 40°51' W 072°29'0 0.0
2014-Oct-16 08:33N 40°51' W 072°29'0 0.0
2014-Oct-16 07:33N 40°51' W 072°29'0 0.0
2014-Oct-16 06:33N 40°51' W 072°29'0 0.0
2014-Oct-16 05:33N 40°51' W 072°29'0 0.0
2014-Oct-16 04:33N 40°51' W 072°29'0 0.0
2014-Oct-16 03:33N 40°51' W 072°29'0 0.0
2014-Oct-16 02:33N 40°51' W 072°29'0 0.0
2014-Oct-16 01:33N 40°51' W 072°29'0 0.3
2014-Oct-16 00:33N 40°51' W 072°29'0 0.0
2014-Oct-15 23:31N 40°51' W 072°29'0 0.0
2014-Oct-15 22:33N 40°51' W 072°29'0 0.0
2014-Oct-15 21:31N 40°51' W 072°29'0 0.0
2014-Oct-15 20:33N 40°51' W 072°29'0 0.0
2014-Oct-15 19:33N 40°51' W 072°29'0 0.0
2014-Oct-15 18:33N 40°51' W 072°29'0 0.3
2014-Oct-15 17:33N 40°51' W 072°29'0 0.0
2014-Oct-15 16:33N 40°51' W 072°29'0 0.0
2014-Oct-15 14:33N 40°51' W 072°29'0 0.0
2014-Oct-15 13:33N 40°51' W 072°29'0 0.0
2014-Oct-15 12:33N 40°51' W 072°29'0 0.0
2014-Oct-15 11:33N 40°51' W 072°29'0 0.0
2014-Oct-15 10:33N 40°51' W 072°29'0 0.0
2014-Oct-15 09:34N 40°51' W 072°29'0 0.0
2014-Oct-15 08:33N 40°51' W 072°29'0 0.0
2014-Oct-15 07:33N 40°51' W 072°29'0 0.0
2014-Oct-15 06:33N 40°51' W 072°29'0 0.0
2014-Oct-15 05:34N 40°51' W 072°29'0 0.0
2014-Oct-15 04:34N 40°51' W 072°29'0 0.0
2014-Oct-15 03:34N 40°51' W 072°29'0 0.0
2014-Oct-15 02:34N 40°51' W 072°29'0 0.0
2014-Oct-15 01:33N 40°51' W 072°29'0 0.0
2014-Oct-15 00:33N 40°51' W 072°29'0 0.0
2014-Oct-14 23:32N 40°51' W 072°29'0 0.0
2014-Oct-14 22:33N 40°51' W 072°29'0 0.1
2014-Oct-14 21:33N 40°51' W 072°29'0 0.2
2014-Oct-14 20:34N 40°51' W 072°29'0 0.0
2014-Oct-14 19:34N 40°51' W 072°29'0 0.4
2014-Oct-14 18:34N 40°51' W 072°29'0 0.0
2014-Oct-14 17:33N 40°51' W 072°29'0 0.0
2014-Oct-14 16:34N 40°51' W 072°29'0 0.0
2014-Oct-14 15:33N 40°51' W 072°29'0 0.0
2014-Oct-14 14:33N 40°51' W 072°29'0 0.0
2014-Oct-14 13:34N 40°51' W 072°29'0 0.0
2014-Oct-14 12:32N 40°51' W 072°29'0 0.0
2014-Oct-14 11:33N 40°51' W 072°29'0 0.0
2014-Oct-14 10:33N 40°51' W 072°29'0 0.0
2014-Oct-14 09:33N 40°51' W 072°29'0 0.0
2014-Oct-14 08:34N 40°51' W 072°29'0 0.0
2014-Oct-14 07:34N 40°51' W 072°29'0 0.0
2014-Oct-14 06:34N 40°51' W 072°29'0 0.0
2014-Oct-14 05:34N 40°51' W 072°29'0 0.0
2014-Oct-14 04:33N 40°51' W 072°29'0 0.0
2014-Oct-14 03:33N 40°51' W 072°29'0 0.0
2014-Oct-14 02:33N 40°51' W 072°29'0 0.0
2014-Oct-14 01:33N 40°51' W 072°29'0 0.0
2014-Oct-14 00:33N 40°51' W 072°29'0 0.3
2014-Oct-13 23:33N 40°51' W 072°29'0 0.0
2014-Oct-13 22:33N 40°51' W 072°29'0 0.3
2014-Oct-13 21:33N 40°51' W 072°29'0 0.0
2014-Oct-13 20:33N 40°51' W 072°29'0 0.0
2014-Oct-13 19:33N 40°51' W 072°29'0 0.0
2014-Oct-13 18:33N 40°51' W 072°29'0 0.0
2014-Oct-13 17:33N 40°51' W 072°29'  
Track history (hours):
 
Tides and Currents Weather Stations Pressure Air Temp Water Temp Dewpoint Dewpoint Depression Visibility Wind Speed Wind Dir Waves Ship Positions

MV Sea Wolf

Owner: SEA WOLF MARINE TOWING & TRANSPORTATION, Bayonne, NJ. More information available from US FCC via Universal Licensing System and Coast Guard Vessel Documentation Center.

Last reported at 2014-Oct-23 17:33 UTC. Time now 2014-Oct-23 17:51 UTC.
Position N 40°51' W 072°29'.

Length 66 m; draft 10 m.

MMSI: 367002350.

Date/timePositionNaut miles runAvg speedWind from/ knotsBaromVisibWave heightAir tempDewpointWater temp
2014-Oct-23 17:33N 40°51' W 072°29'0 0.0
2014-Oct-23 16:33N 40°51' W 072°29'0 0.0
2014-Oct-23 15:33N 40°51' W 072°29'0 0.2
2014-Oct-23 14:33N 40°51' W 072°29'0 0.2
2014-Oct-23 13:33N 40°51' W 072°29'0 0.0
2014-Oct-23 12:33N 40°51' W 072°29'0 0.0
2014-Oct-23 11:33N 40°51' W 072°29'0 0.1
2014-Oct-23 10:33N 40°51' W 072°29'0 0.0
2014-Oct-23 09:33N 40°51' W 072°29'0 0.0
2014-Oct-23 08:33N 40°51' W 072°29'0 0.0
2014-Oct-23 07:33N 40°51' W 072°29'0 0.0
2014-Oct-23 06:33N 40°51' W 072°29'0 0.0
2014-Oct-23 05:33N 40°51' W 072°29'0 0.0
2014-Oct-23 04:33N 40°51' W 072°29'0 0.0
2014-Oct-23 03:33N 40°51' W 072°29'0 0.0
2014-Oct-23 02:33N 40°51' W 072°29'0 0.0
2014-Oct-23 01:33N 40°51' W 072°29'0 0.0
2014-Oct-23 00:33N 40°51' W 072°29'0 0.0
2014-Oct-22 23:34N 40°51' W 072°29'0 0.0
2014-Oct-22 22:33N 40°51' W 072°29'0 0.0
2014-Oct-22 21:33N 40°51' W 072°29'0 0.0
2014-Oct-22 20:33N 40°51' W 072°29'0 0.0
2014-Oct-22 19:33N 40°51' W 072°29'0 0.0
2014-Oct-22 18:33N 40°51' W 072°29'0 0.0
2014-Oct-22 17:33N 40°51' W 072°29'0 0.0
2014-Oct-22 16:33N 40°51' W 072°29'0 0.0
2014-Oct-22 15:33N 40°51' W 072°29'0 0.0
2014-Oct-22 14:33N 40°51' W 072°29'0 0.0
2014-Oct-22 13:33N 40°51' W 072°29'0 0.0
2014-Oct-22 12:33N 40°51' W 072°29'0 0.0
2014-Oct-22 11:33N 40°51' W 072°29'0 0.0
2014-Oct-22 10:33N 40°51' W 072°29'0 0.0
2014-Oct-22 09:34N 40°51' W 072°29'0 0.0
2014-Oct-22 08:33N 40°51' W 072°29'0 0.0
2014-Oct-22 07:33N 40°51' W 072°29'0 0.0
2014-Oct-22 06:33N 40°51' W 072°29'0 0.0
2014-Oct-22 05:33N 40°51' W 072°29'0 0.0
2014-Oct-22 04:33N 40°51' W 072°29'0 0.0
2014-Oct-22 03:34N 40°51' W 072°29'0 0.0
2014-Oct-22 02:33N 40°51' W 072°29'0 0.0
2014-Oct-22 01:33N 40°51' W 072°29'0 0.0
2014-Oct-22 00:33N 40°51' W 072°29'0 0.0
2014-Oct-21 23:33N 40°51' W 072°29'0 0.4
2014-Oct-21 22:33N 40°51' W 072°29'0 0.4
2014-Oct-21 21:33N 40°51' W 072°29'0 0.0
2014-Oct-21 20:33N 40°51' W 072°29'0 0.0
2014-Oct-21 19:33N 40°51' W 072°29'0 0.0
2014-Oct-21 18:33N 40°51' W 072°29'0 0.0
2014-Oct-21 17:33N 40°51' W 072°29'0 0.0
2014-Oct-21 16:33N 40°51' W 072°29'0 0.0
2014-Oct-21 15:33N 40°51' W 072°29'0 0.0
2014-Oct-21 14:33N 40°51' W 072°29'0 0.5
2014-Oct-21 13:33N 40°51' W 072°29'0 0.5
2014-Oct-21 12:33N 40°51' W 072°29'0 0.0
2014-Oct-21 11:34N 40°51' W 072°29'0 0.1
2014-Oct-21 10:34N 40°51' W 072°29'0 0.0
2014-Oct-21 09:34N 40°51' W 072°29'0 0.0
2014-Oct-21 08:34N 40°51' W 072°29'0 0.0
2014-Oct-21 07:33N 40°51' W 072°29'0 0.0
2014-Oct-21 06:33N 40°51' W 072°29'0 0.0
2014-Oct-21 05:34N 40°51' W 072°29'0 0.0
2014-Oct-21 04:34N 40°51' W 072°29'0 0.0
2014-Oct-21 03:34N 40°51' W 072°29'0 0.0
2014-Oct-21 02:34N 40°51' W 072°29'0 0.0
2014-Oct-21 01:33N 40°51' W 072°29'0 0.0
2014-Oct-21 00:33N 40°51' W 072°29'0 0.0
2014-Oct-20 23:33N 40°51' W 072°29'0 0.0
2014-Oct-20 22:34N 40°51' W 072°29'0 0.0
2014-Oct-20 21:34N 40°51' W 072°29'0 0.0
2014-Oct-20 20:34N 40°51' W 072°29'0 0.0
2014-Oct-20 19:34N 40°51' W 072°29'0 0.1
2014-Oct-20 18:34N 40°51' W 072°29'0 0.1
2014-Oct-20 17:34N 40°51' W 072°29'0 0.1
2014-Oct-20 16:34N 40°51' W 072°29'2 1.9
2014-Oct-20 15:34N 40°49' W 072°31'7 6.9
2014-Oct-20 14:34N 40°47' W 072°39'1 1.0
2014-Oct-20 13:29N 40°46' W 072°41'6 6.3
2014-Oct-20 12:34N 40°48' W 072°33'4 3.8
2014-Oct-20 11:34N 40°51' W 072°29'0 0.0
2014-Oct-20 10:33N 40°51' W 072°29'0 0.0
2014-Oct-20 09:34N 40°51' W 072°29'0 0.0
2014-Oct-20 08:34N 40°51' W 072°29'0 0.0
2014-Oct-20 07:33N 40°51' W 072°29'0 0.0
2014-Oct-20 06:33N 40°51' W 072°29'0 0.0
2014-Oct-20 05:34N 40°51' W 072°29'0 0.0
2014-Oct-20 04:34N 40°51' W 072°29'0 0.0
2014-Oct-20 03:34N 40°51' W 072°29'0 0.0
2014-Oct-20 02:34N 40°51' W 072°29'0 0.0
2014-Oct-20 01:33N 40°51' W 072°29'0 0.0
2014-Oct-20 00:34N 40°51' W 072°29'0 0.0
2014-Oct-19 23:34N 40°51' W 072°29'0 0.0
2014-Oct-19 22:34N 40°51' W 072°29'0 0.3
2014-Oct-19 21:33N 40°51' W 072°29'0 0.0
2014-Oct-19 20:33N 40°51' W 072°29'0 0.0
2014-Oct-19 19:33N 40°51' W 072°29'0 0.0
2014-Oct-19 18:34N 40°51' W 072°29'0 0.3
2014-Oct-19 17:34N 40°51' W 072°29'3 2.8
2014-Oct-19 16:34N 40°49' W 072°32'7 7.2
2014-Oct-19 15:34N 40°46' W 072°41'1 1.4
2014-Oct-19 14:33N 40°47' W 072°39'4 4.0
2014-Oct-19 13:34N 40°48' W 072°34'5 4.5
2014-Oct-19 12:34N 40°51' W 072°29'0 0.1
2014-Oct-19 11:34N 40°51' W 072°29'0 0.0
2014-Oct-19 10:34N 40°51' W 072°29'0 0.0
2014-Oct-19 09:33N 40°51' W 072°29'0 0.0
2014-Oct-19 08:33N 40°51' W 072°29'0 0.0
2014-Oct-19 07:33N 40°51' W 072°29'0 0.0
2014-Oct-19 06:33N 40°51' W 072°29'0 0.0
2014-Oct-19 05:33N 40°51' W 072°29'0 0.0
2014-Oct-19 04:33N 40°51' W 072°29'0 0.0
2014-Oct-19 03:33N 40°51' W 072°29'0 0.0
2014-Oct-19 02:33N 40°51' W 072°29'0 0.0
2014-Oct-19 01:33N 40°51' W 072°29'0 0.0
2014-Oct-19 00:34N 40°51' W 072°29'0 0.0
2014-Oct-18 23:33N 40°51' W 072°29'0 0.0
2014-Oct-18 22:34N 40°51' W 072°29'0 0.4
2014-Oct-18 21:34N 40°51' W 072°29'0 0.3
2014-Oct-18 20:33N 40°51' W 072°29'0 0.0
2014-Oct-18 19:34N 40°51' W 072°29'0 0.0
2014-Oct-18 18:33N 40°51' W 072°29'0 0.0
2014-Oct-18 17:33N 40°51' W 072°29'0 0.0
2014-Oct-18 16:34N 40°51' W 072°29'0 0.0
2014-Oct-18 15:34N 40°51' W 072°29'0 0.0
2014-Oct-18 14:33N 40°51' W 072°29'0 0.0
2014-Oct-18 13:34N 40°51' W 072°29'0 0.0
2014-Oct-18 12:33N 40°51' W 072°29'0 0.0
2014-Oct-18 11:33N 40°51' W 072°29'0 0.0
2014-Oct-18 10:33N 40°51' W 072°29'0 0.0
2014-Oct-18 09:33N 40°51' W 072°29'0 0.0
2014-Oct-18 08:33N 40°51' W 072°29'0 0.0
2014-Oct-18 07:33N 40°51' W 072°29'0 0.0
2014-Oct-18 06:33N 40°51' W 072°29'0 0.0
2014-Oct-18 05:33N 40°51' W 072°29'0 0.0
2014-Oct-18 04:33N 40°51' W 072°29'0 0.0
2014-Oct-18 03:33N 40°51' W 072°29'0 0.0
2014-Oct-18 02:33N 40°51' W 072°29'0 0.0
2014-Oct-18 01:33N 40°51' W 072°29'0 0.2
2014-Oct-18 00:33N 40°51' W 072°29'0 0.2
2014-Oct-17 23:33N 40°51' W 072°29'0 0.4
2014-Oct-17 22:33N 40°51' W 072°29'0 0.4
2014-Oct-17 21:33N 40°51' W 072°29'0 0.0
2014-Oct-17 20:33N 40°51' W 072°29'0 0.0
2014-Oct-17 19:33N 40°51' W 072°29'0 0.0
2014-Oct-17 18:33N 40°51' W 072°29'0 0.0
2014-Oct-17 17:33N 40°51' W 072°29'0 0.0
2014-Oct-17 16:33N 40°51' W 072°29'0 0.4
2014-Oct-17 15:33N 40°51' W 072°29'0 0.0
2014-Oct-17 14:33N 40°51' W 072°29'0 0.0
2014-Oct-17 13:33N 40°51' W 072°29'0 0.0
2014-Oct-17 12:33N 40°51' W 072°29'0 0.0
2014-Oct-17 11:33N 40°51' W 072°29'0 0.0
2014-Oct-17 10:33N 40°51' W 072°29'0 0.0
2014-Oct-17 09:33N 40°51' W 072°29'0 0.0
2014-Oct-17 08:33N 40°51' W 072°29'0 0.0
2014-Oct-17 07:33N 40°51' W 072°29'0 0.0
2014-Oct-17 06:33N 40°51' W 072°29'0 0.0
2014-Oct-17 05:33N 40°51' W 072°29'0 0.0
2014-Oct-17 04:33N 40°51' W 072°29'0 0.0
2014-Oct-17 03:33N 40°51' W 072°29'0 0.0
2014-Oct-17 02:33N 40°51' W 072°29'0 0.0
2014-Oct-17 01:33N 40°51' W 072°29'0 0.0
2014-Oct-17 00:33N 40°51' W 072°29'0 0.0
2014-Oct-16 23:33N 40°51' W 072°29'0 0.0
2014-Oct-16 22:33N 40°51' W 072°29'0 0.3
2014-Oct-16 21:33N 40°51' W 072°29'0 0.4
2014-Oct-16 20:33N 40°51' W 072°29'0 0.0
2014-Oct-16 19:33N 40°51' W 072°29'0 0.0
2014-Oct-16 18:33N 40°51' W 072°29'0 0.0
2014-Oct-16 17:33N 40°51' W 072°29'0 0.1
2014-Oct-16 16:33N 40°51' W 072°29'0 0.1
2014-Oct-16 15:33N 40°51' W 072°29'0 0.0
2014-Oct-16 14:33N 40°51' W 072°29'0 0.0
2014-Oct-16 13:33N 40°51' W 072°29'0 0.0
2014-Oct-16 12:33N 40°51' W 072°29'0 0.0
2014-Oct-16 11:33N 40°51' W 072°29'0 0.0
2014-Oct-16 10:33N 40°51' W 072°29'0 0.0
2014-Oct-16 09:33N 40°51' W 072°29'0 0.0
2014-Oct-16 08:33N 40°51' W 072°29'0 0.0
2014-Oct-16 07:33N 40°51' W 072°29'0 0.0
2014-Oct-16 06:33N 40°51' W 072°29'0 0.0
2014-Oct-16 05:33N 40°51' W 072°29'0 0.0
2014-Oct-16 04:33N 40°51' W 072°29'0 0.0
2014-Oct-16 03:33N 40°51' W 072°29'0 0.0
2014-Oct-16 02:33N 40°51' W 072°29'0 0.0
2014-Oct-16 01:33N 40°51' W 072°29'0 0.3
2014-Oct-16 00:33N 40°51' W 072°29'0 0.0
2014-Oct-15 23:31N 40°51' W 072°29'0 0.0
2014-Oct-15 22:33N 40°51' W 072°29'0 0.0
2014-Oct-15 21:31N 40°51' W 072°29'0 0.0
2014-Oct-15 20:33N 40°51' W 072°29'0 0.0
2014-Oct-15 19:33N 40°51' W 072°29'0 0.0
2014-Oct-15 18:33N 40°51' W 072°29'0 0.3
2014-Oct-15 17:33N 40°51' W 072°29'0 0.0
2014-Oct-15 16:33N 40°51' W 072°29'0 0.0
2014-Oct-15 14:33N 40°51' W 072°29'0 0.0
2014-Oct-15 13:33N 40°51' W 072°29'0 0.0
2014-Oct-15 12:33N 40°51' W 072°29'0 0.0
2014-Oct-15 11:33N 40°51' W 072°29'0 0.0
2014-Oct-15 10:33N 40°51' W 072°29'0 0.0
2014-Oct-15 09:34N 40°51' W 072°29'0 0.0
2014-Oct-15 08:33N 40°51' W 072°29'0 0.0
2014-Oct-15 07:33N 40°51' W 072°29'0 0.0
2014-Oct-15 06:33N 40°51' W 072°29'0 0.0
2014-Oct-15 05:34N 40°51' W 072°29'0 0.0
2014-Oct-15 04:34N 40°51' W 072°29'0 0.0
2014-Oct-15 03:34N 40°51' W 072°29'0 0.0
2014-Oct-15 02:34N 40°51' W 072°29'0 0.0
2014-Oct-15 01:33N 40°51' W 072°29'0 0.0
2014-Oct-15 00:33N 40°51' W 072°29'0 0.0
2014-Oct-14 23:32N 40°51' W 072°29'0 0.0
2014-Oct-14 22:33N 40°51' W 072°29'0 0.1
2014-Oct-14 21:33N 40°51' W 072°29'0 0.2
2014-Oct-14 20:34N 40°51' W 072°29'0 0.0
2014-Oct-14 19:34N 40°51' W 072°29'0 0.4
2014-Oct-14 18:34N 40°51' W 072°29'0 0.0
2014-Oct-14 17:33N 40°51' W 072°29'0 0.0
2014-Oct-14 16:34N 40°51' W 072°29'0 0.0
2014-Oct-14 15:33N 40°51' W 072°29'0 0.0
2014-Oct-14 14:33N 40°51' W 072°29'0 0.0
2014-Oct-14 13:34N 40°51' W 072°29'0 0.0
2014-Oct-14 12:32N 40°51' W 072°29'0 0.0
2014-Oct-14 11:33N 40°51' W 072°29'0 0.0
2014-Oct-14 10:33N 40°51' W 072°29'0 0.0
2014-Oct-14 09:33N 40°51' W 072°29'0 0.0
2014-Oct-14 08:34N 40°51' W 072°29'0 0.0
2014-Oct-14 07:34N 40°51' W 072°29'0 0.0
2014-Oct-14 06:34N 40°51' W 072°29'0 0.0
2014-Oct-14 05:34N 40°51' W 072°29'0 0.0
2014-Oct-14 04:33N 40°51' W 072°29'0 0.0
2014-Oct-14 03:33N 40°51' W 072°29'0 0.0
2014-Oct-14 02:33N 40°51' W 072°29'0 0.0
2014-Oct-14 01:33N 40°51' W 072°29'0 0.0
2014-Oct-14 00:33N 40°51' W 072°29'0 0.3
2014-Oct-13 23:33N 40°51' W 072°29'0 0.0
2014-Oct-13 22:33N 40°51' W 072°29'0 0.3
2014-Oct-13 21:33N 40°51' W 072°29'0 0.0
2014-Oct-13 20:33N 40°51' W 072°29'0 0.0
2014-Oct-13 19:33N 40°51' W 072°29'0 0.0
2014-Oct-13 18:33N 40°51' W 072°29'0 0.0
2014-Oct-13 17:33N 40°51' W 072°29'  

Dump ship's entire track history